Time;durP1;ratioP1;P1;durP2;ratioP2;P2;SDS_P1;SDS_P2;PMS_P1;PMS_P2;Temp;Humidity;BMP_temperature;BMP_pressure;BME280_temperature;BME280_humidity;BME280_pressure;Samples;Min_cycle;Max_cycle;Signal;HPM_P1;HPM_P2
2022/01/01 00:00:43;;;;;;;2.58;1.92;;;11.30;99.90;;;;;;5137402;27;20054;-88
2022/01/01 00:03:09;;;;;;;28.15;10.07;;;11.20;99.90;;;;;;5155449;27;20096;-85
2022/01/01 00:05:35;;;;;;;13.68;8.48;;;11.20;99.90;;;;;;5137349;27;20432;-88
2022/01/01 00:08:03;;;;;;;15.02;10.23;;;11.20;99.90;;;;;;5155126;27;20050;-86
2022/01/01 00:10:30;;;;;;;31.23;24.08;;;11.20;99.90;;;;;;5151100;27;20039;-85
2022/01/01 00:12:56;;;;;;;21.92;17.02;;;11.20;99.90;;;;;;5115896;27;20071;-87
2022/01/01 00:15:21;;;;;;;26.05;16.83;;;11.20;99.90;;;;;;5116085;27;20073;-85
2022/01/01 00:17:47;;;;;;;8.88;6.20;;;11.30;99.90;;;;;;5112231;28;20480;-85
2022/01/01 00:20:14;;;;;;;13.77;5.57;;;11.30;99.90;;;;;;5113144;28;20502;-87
2022/01/01 00:22:41;;;;;;;4.72;4.32;;;11.30;99.90;;;;;;5113949;28;20531;-87
2022/01/01 00:25:08;;;;;;;5.47;3.50;;;11.40;99.90;;;;;;5113219;28;20063;-88
2022/01/01 00:27:34;;;;;;;5.05;4.75;;;11.30;99.90;;;;;;5095110;28;20055;-87
2022/01/01 00:30:00;;;;;;;5.30;4.90;;;11.30;99.90;;;;;;5113355;28;20118;-86
2022/01/01 00:32:26;;;;;;;15.18;6.28;;;11.20;99.90;;;;;;5113097;28;20467;-86
2022/01/01 00:34:51;;;;;;;3.45;3.03;;;11.20;99.90;;;;;;5113371;28;20040;-86
2022/01/01 00:37:18;;;;;;;9.25;4.25;;;11.20;99.90;;;;;;5095366;28;20044;-87
2022/01/01 00:39:43;;;;;;;4.53;4.15;;;11.30;99.90;;;;;;5115741;28;20184;-86
2022/01/01 00:42:09;;;;;;;11.75;4.55;;;11.30;99.90;;;;;;5116256;28;20570;-86
2022/01/01 00:44:35;;;;;;;8.80;4.28;;;11.20;99.90;;;;;;5082682;28;20483;-86
2022/01/01 00:47:02;;;;;;;8.45;5.70;;;11.30;99.90;;;;;;5093168;27;20045;-89
2022/01/01 00:49:28;;;;;;;5.35;4.15;;;11.20;99.90;;;;;;5124313;27;20046;-86
2022/01/01 00:51:54;;;;;;;4.65;3.35;;;11.20;99.90;;;;;;5120830;27;20485;-87
2022/01/01 00:54:19;;;;;;;4.43;3.90;;;11.20;99.90;;;;;;5138058;27;20051;-88
2022/01/01 00:56:45;;;;;;;3.47;3.08;;;11.20;99.90;;;;;;5133293;27;20043;-86
2022/01/01 00:59:11;;;;;;;12.30;5.53;;;11.20;99.90;;;;;;5133179;27;20046;-88
2022/01/01 01:01:37;;;;;;;6.05;4.00;;;11.20;99.90;;;;;;5119371;27;20550;-89
2022/01/01 01:04:03;;;;;;;8.00;4.47;;;11.20;99.90;;;;;;5118029;27;20501;-88
2022/01/01 01:06:29;;;;;;;7.43;3.20;;;11.20;99.90;;;;;;5099985;27;20036;-85
2022/01/01 01:08:59;;;;;;;9.02;4.07;;;11.20;99.90;;;;;;5101165;27;20051;-84
2022/01/01 01:11:26;;;;;;;5.10;3.47;;;11.30;99.90;;;;;;5123617;27;20052;-87
2022/01/01 01:13:58;;;;;;;7.03;5.72;;;11.20;99.90;;;;;;5082630;28;20048;-85
2022/01/01 01:16:25;;;;;;;3.95;2.60;;;11.30;99.90;;;;;;5098942;28;20042;-89
2022/01/01 01:18:53;;;;;;;12.68;3.97;;;11.20;99.90;;;;;;5112953;28;20051;-79
2022/01/01 01:21:20;;;;;;;8.80;4.00;;;11.20;99.90;;;;;;5082011;28;20046;-89
2022/01/01 01:23:47;;;;;;;2.95;2.42;;;11.20;99.90;;;;;;5098982;28;20048;-87
2022/01/01 01:26:13;;;;;;;7.18;2.97;;;11.20;99.90;;;;;;5099623;28;20147;-90
2022/01/01 01:28:46;;;;;;;13.52;5.00;;;11.20;99.90;;;;;;5099494;28;20495;-86
2022/01/01 01:31:11;;;;;;;9.05;3.65;;;11.10;99.90;;;;;;5128319;28;20079;-84
2022/01/01 01:33:37;;;;;;;13.98;3.70;;;11.20;99.90;;;;;;5098845;28;20475;-85
2022/01/01 01:36:03;;;;;;;12.43;4.00;;;11.20;99.90;;;;;;5117162;28;20047;-85
2022/01/01 01:38:28;;;;;;;10.05;4.95;;;11.20;99.90;;;;;;5107075;28;20044;-83
2022/01/01 01:40:54;;;;;;;6.85;5.10;;;11.20;99.90;;;;;;5106224;28;20051;-86
2022/01/01 01:43:20;;;;;;;2.70;1.95;;;11.20;99.90;;;;;;5098928;28;20042;-80
2022/01/01 01:45:48;;;;;;;3.47;2.80;;;11.20;99.90;;;;;;5098532;28;20048;-87
2022/01/01 01:48:13;;;;;;;11.35;3.55;;;11.20;99.90;;;;;;5085210;28;20130;-82
2022/01/01 01:50:39;;;;;;;4.15;3.88;;;11.10;99.90;;;;;;5115770;28;20075;-83
2022/01/01 01:53:06;;;;;;;4.93;3.42;;;11.20;99.90;;;;;;5098638;28;20044;-85
2022/01/01 01:55:32;;;;;;;12.02;3.33;;;11.10;99.90;;;;;;5097379;28;20472;-83
2022/01/01 01:57:58;;;;;;;6.50;4.80;;;11.00;99.90;;;;;;5097478;28;20043;-83
2022/01/01 02:02:56;;;;;;;7.68;4.85;;;11.10;99.90;;;;;;5097676;28;20416;-83
2022/01/01 02:05:22;;;;;;;10.45;7.28;;;11.10;99.90;;;;;;5097778;28;20044;-83
2022/01/01 02:07:49;;;;;;;12.80;6.53;;;11.10;99.90;;;;;;5097535;28;20044;-83
2022/01/01 02:10:15;;;;;;;6.07;3.72;;;11.10;99.90;;;;;;5115856;28;20039;-83
2022/01/01 02:12:42;;;;;;;19.27;8.23;;;11.00;99.90;;;;;;5116068;28;20496;-82
2022/01/01 02:15:14;;;;;;;19.05;7.65;;;11.00;99.90;;;;;;5115593;28;20083;-84
2022/01/01 02:17:40;;;;;;;5.72;5.13;;;11.10;99.90;;;;;;5128950;27;20047;-84
2022/01/01 02:20:12;;;;;;;8.73;7.85;;;11.10;99.90;;;;;;5156743;27;20037;-84
2022/01/01 02:22:46;;;;;;;29.40;5.47;;;11.00;99.90;;;;;;5156779;27;20103;-82
2022/01/01 02:25:12;;;;;;;13.55;7.63;;;11.00;99.90;;;;;;5138421;27;20043;-84
2022/01/01 02:27:38;;;;;;;26.73;10.75;;;11.00;99.90;;;;;;5138177;27;20134;-86
2022/01/01 02:30:06;;;;;;;10.45;5.22;;;11.00;99.90;;;;;;5156435;27;20471;-84
2022/01/01 02:32:31;;;;;;;6.03;5.55;;;11.00;99.90;;;;;;5137516;27;20411;-80
2022/01/01 02:34:57;;;;;;;7.28;4.88;;;11.00;99.90;;;;;;5156691;27;20035;-85
2022/01/01 02:37:23;;;;;;;35.40;6.05;;;11.00;99.90;;;;;;5138029;27;20402;-88
2022/01/01 02:39:50;;;;;;;6.28;5.68;;;10.90;99.90;;;;;;5137802;27;20039;-85
2022/01/01 02:42:20;;;;;;;14.07;5.93;;;11.00;99.90;;;;;;5156525;27;20107;-84
2022/01/01 02:44:45;;;;;;;17.50;8.52;;;11.00;99.90;;;;;;5138028;27;20431;-85
2022/01/01 02:47:11;;;;;;;9.57;8.05;;;11.00;99.90;;;;;;5137600;27;20043;-83
2022/01/01 02:49:37;;;;;;;10.65;7.88;;;10.90;99.90;;;;;;5120282;27;20038;-86
2022/01/01 02:52:03;;;;;;;10.40;5.72;;;10.90;99.90;;;;;;5137619;27;20031;-86
2022/01/01 02:54:29;;;;;;;13.77;5.28;;;10.90;99.90;;;;;;5156097;27;20095;-86
2022/01/01 02:56:55;;;;;;;9.27;8.35;;;10.90;99.90;;;;;;5155895;27;20039;-86
2022/01/01 02:59:20;;;;;;;7.38;6.70;;;10.80;99.90;;;;;;5137125;27;20092;-81
2022/01/01 03:01:46;;;;;;;3.15;2.75;;;10.90;99.90;;;;;;5136792;27;20055;-86
2022/01/01 03:04:12;;;;;;;9.55;8.65;;;10.90;99.90;;;;;;5155793;27;20043;-82
2022/01/01 03:06:38;;;;;;;6.45;5.07;;;10.90;99.90;;;;;;5137288;27;20087;-84
2022/01/01 03:09:04;;;;;;;6.78;4.50;;;10.80;99.90;;;;;;5155913;27;20501;-84
2022/01/01 03:11:29;;;;;;;6.22;5.18;;;10.90;99.90;;;;;;5155831;27;20078;-85
2022/01/01 03:13:55;;;;;;;8.55;3.42;;;10.80;99.90;;;;;;5137139;27;20082;-86
2022/01/01 03:16:21;;;;;;;14.80;5.50;;;10.90;99.90;;;;;;5136857;27;20043;-85
2022/01/01 03:18:47;;;;;;;14.32;7.07;;;10.90;99.90;;;;;;5119647;27;20095;-84
2022/01/01 03:21:12;;;;;;;8.13;6.30;;;10.90;99.90;;;;;;5155515;27;20084;-85
2022/01/01 03:23:38;;;;;;;12.23;8.40;;;10.90;99.90;;;;;;5157428;27;20035;-85
2022/01/01 03:26:04;;;;;;;9.75;6.78;;;11.00;99.90;;;;;;5164851;27;20118;-84
2022/01/01 03:28:30;;;;;;;18.13;5.97;;;10.90;99.90;;;;;;5157635;27;20035;-85
2022/01/01 03:30:56;;;;;;;9.73;6.88;;;10.90;99.90;;;;;;5155725;27;20053;-85
2022/01/01 03:33:22;;;;;;;7.88;6.25;;;10.90;99.90;;;;;;5136695;27;20051;-84
2022/01/01 03:35:48;;;;;;;13.45;2.97;;;11.00;99.90;;;;;;5155341;27;20046;-84
2022/01/01 03:38:14;;;;;;;7.15;6.43;;;11.00;99.90;;;;;;5155291;27;20121;-85
2022/01/01 03:40:40;;;;;;;17.10;7.82;;;11.10;99.90;;;;;;5136425;27;20057;-85
2022/01/01 03:43:06;;;;;;;8.77;6.05;;;11.00;99.90;;;;;;5155353;27;20042;-82
2022/01/01 03:45:32;;;;;;;6.57;4.65;;;11.00;99.90;;;;;;5155069;27;20046;-83
2022/01/01 03:47:57;;;;;;;8.63;6.28;;;11.00;99.90;;;;;;5136467;27;20048;-82
2022/01/01 03:50:23;;;;;;;7.72;5.72;;;11.00;99.90;;;;;;5154962;27;20474;-83
2022/01/01 03:52:49;;;;;;;15.35;6.57;;;11.00;99.90;;;;;;5136324;27;20091;-82
2022/01/01 03:55:15;;;;;;;6.55;6.13;;;11.00;99.90;;;;;;5136615;27;20099;-84
2022/01/01 03:57:40;;;;;;;16.30;8.25;;;10.90;99.90;;;;;;5154704;27;20068;-83
2022/01/01 04:00:11;;;;;;;19.70;9.90;;;11.00;99.90;;;;;;5135960;27;20138;-84
2022/01/01 04:02:38;;;;;;;10.45;7.60;;;11.00;99.90;;;;;;5154928;27;20043;-83
2022/01/01 04:05:04;;;;;;;18.52;10.40;;;11.00;99.90;;;;;;5154893;27;20463;-85
2022/01/01 04:07:31;;;;;;;9.05;6.63;;;11.00;99.90;;;;;;5154923;27;20383;-83
2022/01/01 04:09:57;;;;;;;7.65;6.63;;;11.00;99.90;;;;;;5154882;27;20106;-82
2022/01/01 04:12:24;;;;;;;20.27;10.63;;;11.00;99.90;;;;;;5135438;27;20042;-83
2022/01/01 04:14:49;;;;;;;16.30;10.30;;;10.90;99.90;;;;;;5136344;27;20126;-83
2022/01/01 04:17:15;;;;;;;9.07;8.02;;;11.00;99.90;;;;;;5156544;27;20070;-81
2022/01/01 04:19:41;;;;;;;13.88;9.35;;;11.00;99.90;;;;;;5162535;27;20051;-82
2022/01/01 04:22:11;;;;;;;10.93;9.88;;;11.10;99.90;;;;;;5157707;27;20171;-82
2022/01/01 04:24:38;;;;;;;14.00;8.55;;;11.00;99.90;;;;;;5155362;27;20123;-84
2022/01/01 04:27:05;;;;;;;14.57;11.07;;;11.10;99.90;;;;;;5136046;27;20122;-81
2022/01/01 04:29:33;;;;;;;24.75;14.15;;;11.00;99.90;;;;;;5154512;27;20407;-82
2022/01/01 04:31:59;;;;;;;13.73;9.85;;;11.00;99.90;;;;;;5154567;27;20074;-82
2022/01/01 04:34:26;;;;;;;18.20;9.82;;;11.00;99.90;;;;;;5135767;27;20074;-83
2022/01/01 04:37:01;;;;;;;19.38;10.95;;;11.00;99.90;;;;;;5135756;27;20053;-82
2022/01/01 04:39:28;;;;;;;19.80;11.32;;;11.00;99.90;;;;;;5135637;27;20051;-83
2022/01/01 04:41:54;;;;;;;11.88;8.77;;;10.90;99.90;;;;;;5154770;27;20038;-82
2022/01/01 04:44:19;;;;;;;9.30;8.18;;;10.90;99.90;;;;;;5136215;27;20418;-82
2022/01/01 04:46:45;;;;;;;34.08;14.30;;;10.90;99.90;;;;;;5137007;27;20038;-83
2022/01/01 04:49:11;;;;;;;27.02;9.30;;;10.90;99.90;;;;;;5134060;28;20091;-81
2022/01/01 04:51:36;;;;;;;22.83;10.93;;;10.90;99.90;;;;;;5115304;28;20035;-82
2022/01/01 04:54:02;;;;;;;18.73;10.52;;;10.90;99.90;;;;;;5115279;28;20039;-81
2022/01/01 04:56:32;;;;;;;17.48;10.38;;;10.90;99.90;;;;;;5133758;28;20472;-82
2022/01/01 04:58:58;;;;;;;17.55;7.20;;;10.90;99.90;;;;;;5133679;28;20475;-82
2022/01/01 05:01:23;;;;;;;15.55;11.10;;;10.90;99.90;;;;;;5115070;28;20063;-82
2022/01/01 05:03:49;;;;;;;31.73;13.63;;;10.90;99.90;;;;;;5134647;28;20047;-81
2022/01/01 05:06:15;;;;;;;19.23;10.38;;;10.90;99.90;;;;;;5115389;28;20043;-83
2022/01/01 05:08:40;;;;;;;20.58;11.32;;;10.90;99.90;;;;;;5133974;28;20046;-83
2022/01/01 05:11:07;;;;;;;13.93;10.57;;;11.00;99.90;;;;;;5116946;28;20180;-84
2022/01/01 05:13:32;;;;;;;18.80;13.93;;;10.90;99.90;;;;;;5120638;28;20133;-82
2022/01/01 05:15:58;;;;;;;16.88;7.65;;;11.00;99.90;;;;;;5116916;28;20501;-82
2022/01/01 05:18:24;;;;;;;13.50;6.30;;;10.90;99.90;;;;;;5115306;28;20551;-83
2022/01/01 05:20:50;;;;;;;21.13;9.02;;;10.90;99.90;;;;;;5133672;28;20039;-82
2022/01/01 05:23:16;;;;;;;30.08;9.70;;;10.90;99.90;;;;;;5133403;27;20039;-83
2022/01/01 05:25:42;;;;;;;18.15;9.93;;;10.90;99.90;;;;;;5137246;27;20047;-83
2022/01/01 05:28:08;;;;;;;13.85;11.18;;;10.90;99.90;;;;;;5118906;27;20130;-83
2022/01/01 05:30:34;;;;;;;20.67;11.50;;;11.10;99.90;;;;;;5118737;27;20039;-82
2022/01/01 05:33:02;;;;;;;14.18;7.80;;;10.90;99.90;;;;;;5137038;27;20049;-82
2022/01/01 05:35:30;;;;;;;43.40;12.10;;;11.00;99.90;;;;;;5118447;27;20127;-83
2022/01/01 05:37:55;;;;;;;20.00;10.02;;;11.00;99.90;;;;;;5118943;27;20118;-84
2022/01/01 05:40:21;;;;;;;21.10;9.18;;;11.00;99.90;;;;;;5137263;27;20110;-82
2022/01/01 05:42:47;;;;;;;8.77;8.00;;;11.00;99.90;;;;;;5118618;27;20046;-83
2022/01/01 05:45:12;;;;;;;14.13;9.52;;;11.00;99.90;;;;;;5118908;27;20051;-82
2022/01/01 05:47:38;;;;;;;19.25;11.68;;;11.10;99.90;;;;;;5137106;27;20394;-82
2022/01/01 05:50:04;;;;;;;8.98;6.00;;;11.10;99.90;;;;;;5137026;27;20043;-82
2022/01/01 05:52:30;;;;;;;12.77;7.90;;;11.10;99.90;;;;;;5136970;27;20046;-82
2022/01/01 05:54:56;;;;;;;6.90;5.90;;;11.10;99.90;;;;;;5136874;27;20035;-82
2022/01/01 05:57:22;;;;;;;19.75;8.93;;;11.10;99.90;;;;;;5118264;27;20090;-82
2022/01/01 05:59:47;;;;;;;19.08;13.02;;;11.10;99.90;;;;;;5136473;27;20096;-84
2022/01/01 06:02:13;;;;;;;17.98;11.15;;;11.10;99.90;;;;;;5136791;27;20051;-83
2022/01/01 06:04:39;;;;;;;19.13;9.85;;;11.20;99.90;;;;;;5136717;27;20080;-82
2022/01/01 06:07:07;;;;;;;10.68;6.35;;;11.20;99.90;;;;;;5118167;27;20082;-82
2022/01/01 06:09:33;;;;;;;10.95;5.55;;;11.10;99.90;;;;;;5136397;27;20437;-83
2022/01/01 06:11:58;;;;;;;10.57;7.43;;;11.10;99.90;;;;;;5117569;27;20114;-85
2022/01/01 06:14:24;;;;;;;24.52;7.55;;;11.10;99.90;;;;;;5136286;27;20103;-83
2022/01/01 06:16:49;;;;;;;12.25;6.00;;;11.10;99.90;;;;;;5118215;27;20031;-84
2022/01/01 06:19:15;;;;;;;14.90;7.53;;;11.10;99.90;;;;;;5117897;27;20394;-83
2022/01/01 06:21:41;;;;;;;11.02;8.57;;;11.10;99.90;;;;;;5117842;27;20035;-82
2022/01/01 06:24:07;;;;;;;6.55;5.93;;;11.00;99.90;;;;;;5117872;27;20099;-83
2022/01/01 06:26:32;;;;;;;17.00;8.20;;;11.00;99.90;;;;;;5117593;27;20116;-82
2022/01/01 06:28:58;;;;;;;24.25;8.60;;;10.90;99.90;;;;;;5136052;27;20054;-82
2022/01/01 06:31:24;;;;;;;12.57;8.40;;;11.00;99.90;;;;;;5136211;27;20042;-83
2022/01/01 06:33:50;;;;;;;8.80;5.25;;;11.00;99.90;;;;;;5136037;27;20074;-79
2022/01/01 06:36:17;;;;;;;7.78;5.57;;;11.00;99.90;;;;;;5135372;27;20074;-83
2022/01/01 06:38:44;;;;;;;12.95;7.13;;;11.00;99.90;;;;;;5135691;27;20035;-79
2022/01/01 06:41:10;;;;;;;6.13;5.30;;;11.00;99.90;;;;;;5117444;27;20046;-83
2022/01/01 06:43:36;;;;;;;7.25;4.15;;;11.10;99.90;;;;;;5135699;27;20035;-81
2022/01/01 06:46:02;;;;;;;10.00;4.65;;;11.00;99.90;;;;;;5117132;27;20047;-82
2022/01/01 06:48:27;;;;;;;8.27;6.70;;;11.00;99.90;;;;;;5117365;27;20104;-81
2022/01/01 06:50:54;;;;;;;13.38;8.02;;;11.00;99.90;;;;;;5117536;27;20082;-82
2022/01/01 06:53:19;;;;;;;13.13;5.93;;;11.00;99.90;;;;;;5135636;27;20471;-82
2022/01/01 06:55:45;;;;;;;9.35;6.95;;;10.90;99.90;;;;;;5135898;27;20045;-80
2022/01/01 06:58:11;;;;;;;6.45;3.38;;;11.00;99.90;;;;;;5117410;27;20644;-82
2022/01/01 07:00:37;;;;;;;7.45;4.65;;;10.90;99.90;;;;;;5151434;27;20055;-80
2022/01/01 07:03:03;;;;;;;14.98;8.27;;;11.00;99.90;;;;;;5146269;27;20050;-79
2022/01/01 07:05:29;;;;;;;12.32;5.28;;;11.10;99.90;;;;;;5135744;27;20047;-83
2022/01/01 07:07:55;;;;;;;10.80;8.38;;;10.90;99.90;;;;;;5135612;27;20088;-80
2022/01/01 07:10:21;;;;;;;5.80;5.00;;;10.90;99.90;;;;;;5135467;27;20031;-83
2022/01/01 07:12:47;;;;;;;7.47;5.00;;;10.90;99.90;;;;;;5135663;27;20100;-82
2022/01/01 07:15:15;;;;;;;2.50;2.30;;;11.00;99.90;;;;;;5116678;27;20043;-79
2022/01/01 07:17:41;;;;;;;8.93;3.80;;;11.10;99.90;;;;;;5116767;27;20051;-83
2022/01/01 07:20:07;;;;;;;7.32;2.78;;;11.00;99.90;;;;;;5134950;27;20145;-79
2022/01/01 07:22:42;;;;;;;6.68;6.07;;;11.00;99.90;;;;;;5134751;27;20047;-80
2022/01/01 07:25:09;;;;;;;7.22;4.22;;;11.00;99.90;;;;;;5117369;27;20388;-83
2022/01/01 07:27:34;;;;;;;5.70;3.05;;;11.00;99.90;;;;;;5135049;27;20035;-83
2022/01/01 07:30:00;;;;;;;6.70;4.20;;;11.00;99.90;;;;;;5134965;27;20036;-82
2022/01/01 07:32:26;;;;;;;4.57;2.47;;;11.00;99.90;;;;;;5134564;27;20075;-80
2022/01/01 07:34:51;;;;;;;15.85;2.42;;;11.00;99.90;;;;;;5134883;27;20063;-79
2022/01/01 07:37:17;;;;;;;5.35;4.18;;;11.00;99.90;;;;;;5116507;27;20039;-81
2022/01/01 07:39:43;;;;;;;1.75;1.35;;;11.10;99.90;;;;;;5134649;27;20043;-80
2022/01/01 07:42:09;;;;;;;13.70;3.60;;;11.10;99.90;;;;;;5134725;27;20421;-80
2022/01/01 07:44:34;;;;;;;5.10;4.80;;;11.10;99.90;;;;;;5134447;27;20043;-80
2022/01/01 07:47:01;;;;;;;3.83;2.58;;;11.00;99.90;;;;;;5134557;27;20398;-81
2022/01/01 07:49:26;;;;;;;7.72;3.80;;;11.00;99.90;;;;;;5134732;27;20045;-83
2022/01/01 07:51:52;;;;;;;6.28;3.85;;;11.00;99.90;;;;;;5134215;27;20554;-83
2022/01/01 07:54:18;;;;;;;8.77;2.75;;;11.00;99.90;;;;;;5141700;27;20118;-78
2022/01/01 07:56:43;;;;;;;11.63;2.90;;;11.20;99.90;;;;;;5127666;27;20043;-78
2022/01/01 07:59:09;;;;;;;6.05;3.88;;;11.10;99.90;;;;;;5135504;27;20089;-83
2022/01/01 08:01:36;;;;;;;2.60;2.22;;;11.10;99.90;;;;;;5134092;27;20047;-84
2022/01/01 08:04:02;;;;;;;4.00;2.78;;;11.10;99.90;;;;;;5115966;27;20116;-85
2022/01/01 08:06:30;;;;;;;4.53;3.40;;;11.10;99.90;;;;;;5134521;27;20042;-85
2022/01/01 08:08:55;;;;;;;6.30;5.72;;;11.10;99.90;;;;;;5134121;27;20039;-84
2022/01/01 08:11:21;;;;;;;12.20;2.50;;;11.20;99.90;;;;;;5134389;27;20062;-83
2022/01/01 08:13:46;;;;;;;8.13;3.10;;;11.10;99.90;;;;;;5134612;27;20085;-83
2022/01/01 08:16:12;;;;;;;3.30;3.05;;;11.10;99.90;;;;;;5115865;27;20058;-83
2022/01/01 08:18:39;;;;;;;7.93;2.78;;;11.10;99.90;;;;;;5134178;27;20477;-84
2022/01/01 08:21:04;;;;;;;2.55;2.35;;;11.10;99.90;;;;;;5115842;27;20131;-83
2022/01/01 08:23:30;;;;;;;3.63;3.22;;;11.10;99.90;;;;;;5133990;27;20079;-84
2022/01/01 08:25:58;;;;;;;2.75;1.05;;;11.10;99.90;;;;;;5134206;27;20043;-84
2022/01/01 08:28:23;;;;;;;3.30;1.92;;;11.10;99.90;;;;;;5133810;27;20471;-83
2022/01/01 08:30:49;;;;;;;5.30;4.45;;;11.10;99.90;;;;;;5134484;27;20039;-83
2022/01/01 08:33:15;;;;;;;4.22;3.63;;;11.20;99.90;;;;;;5115701;28;20042;-82
2022/01/01 08:35:41;;;;;;;4.15;2.28;;;11.10;99.90;;;;;;5133894;28;20043;-82
2022/01/01 08:38:06;;;;;;;3.45;2.10;;;11.10;99.90;;;;;;5115474;28;20549;-83
2022/01/01 08:40:33;;;;;;;8.65;1.95;;;11.20;99.90;;;;;;5115699;28;20492;-82
2022/01/01 08:42:58;;;;;;;4.63;3.78;;;11.10;99.90;;;;;;5134595;28;20043;-82
2022/01/01 08:45:25;;;;;;;2.08;1.13;;;11.20;99.90;;;;;;5115739;28;20096;-83
2022/01/01 08:47:51;;;;;;;12.57;4.50;;;11.20;99.90;;;;;;5116309;28;20131;-79
2022/01/01 08:50:17;;;;;;;4.78;3.40;;;11.20;99.90;;;;;;5142500;28;20460;-80
2022/01/01 08:52:44;;;;;;;3.20;2.90;;;11.20;99.90;;;;;;5135439;28;20051;-83
2022/01/01 08:55:10;;;;;;;8.80;4.82;;;11.20;99.90;;;;;;5134368;28;20115;-83
2022/01/01 08:57:36;;;;;;;20.25;2.97;;;11.30;99.90;;;;;;5134141;28;20051;-84
2022/01/01 09:00:06;;;;;;;4.97;4.03;;;11.30;99.90;;;;;;5118209;27;20062;-83
2022/01/01 09:02:32;;;;;;;8.57;3.53;;;11.30;99.90;;;;;;5119767;27;20426;-81
2022/01/01 09:04:57;;;;;;;6.18;5.70;;;11.30;99.90;;;;;;5138067;27;20047;-83
2022/01/01 09:07:29;;;;;;;3.40;3.05;;;11.30;99.90;;;;;;5138122;27;20089;-83
2022/01/01 09:09:56;;;;;;;4.85;3.45;;;11.30;99.90;;;;;;5119472;27;20399;-83
2022/01/01 09:12:21;;;;;;;9.02;4.60;;;11.40;99.90;;;;;;5102257;27;20039;-85
2022/01/01 09:14:47;;;;;;;5.90;5.35;;;11.30;99.90;;;;;;5137895;27;20035;-83
2022/01/01 09:17:13;;;;;;;7.20;3.90;;;11.40;99.90;;;;;;5137681;27;20031;-84
2022/01/01 09:19:38;;;;;;;11.20;2.95;;;11.30;99.90;;;;;;5101816;27;20046;-83
2022/01/01 09:22:04;;;;;;;3.10;2.40;;;11.40;99.90;;;;;;5137464;27;20039;-81
2022/01/01 09:24:30;;;;;;;4.95;3.05;;;11.40;99.90;;;;;;5119000;27;20043;-82
2022/01/01 09:26:56;;;;;;;3.50;3.30;;;11.50;99.90;;;;;;5137560;27;20035;-83
2022/01/01 09:29:22;;;;;;;9.15;5.63;;;11.40;99.90;;;;;;5137499;27;20448;-83
2022/01/01 09:31:48;;;;;;;6.88;6.25;;;11.40;99.90;;;;;;5137544;27;20453;-83
2022/01/01 09:34:13;;;;;;;6.88;3.90;;;11.40;99.90;;;;;;5118493;27;20077;-82
2022/01/01 09:36:39;;;;;;;7.75;4.25;;;11.40;99.90;;;;;;5101640;27;20126;-83
2022/01/01 09:39:06;;;;;;;3.08;2.13;;;11.50;99.90;;;;;;5118527;27;20058;-83
2022/01/01 09:41:32;;;;;;;10.07;7.78;;;11.40;99.90;;;;;;5118482;27;20043;-83
2022/01/01 09:43:58;;;;;;;4.13;3.33;;;11.50;99.90;;;;;;5118474;27;20047;-83
2022/01/01 09:46:26;;;;;;;8.45;4.05;;;11.60;99.90;;;;;;5118418;27;20043;-83
2022/01/01 09:48:53;;;;;;;5.30;4.25;;;11.60;99.90;;;;;;5136789;27;20514;-83
2022/01/01 09:51:20;;;;;;;7.47;2.83;;;11.60;99.90;;;;;;5118844;27;20042;-82
2022/01/01 09:53:46;;;;;;;5.80;3.35;;;11.60;99.90;;;;;;5118623;27;20111;-83
2022/01/01 09:56:12;;;;;;;2.65;2.45;;;11.70;99.90;;;;;;5118509;27;20070;-84
2022/01/01 09:58:38;;;;;;;9.02;4.60;;;11.60;99.90;;;;;;5136542;27;20035;-79
2022/01/01 10:01:06;;;;;;;4.22;3.92;;;11.70;99.90;;;;;;5136572;27;20059;-82
2022/01/01 10:03:43;;;;;;;3.58;3.30;;;11.70;99.90;;;;;;5136781;27;20075;-79
2022/01/01 10:06:17;;;;;;;1.80;1.70;;;11.70;99.90;;;;;;5136615;27;20486;-82
2022/01/01 10:08:57;;;;;;;4.72;4.32;;;11.80;99.90;;;;;;5118461;27;20146;-83
2022/01/01 10:11:23;;;;;;;4.10;3.70;;;11.70;99.90;;;;;;5134951;27;20475;-79
2022/01/01 10:13:50;;;;;;;3.38;2.22;;;11.70;99.90;;;;;;5118134;27;20085;-83
2022/01/01 10:16:16;;;;;;;7.35;3.45;;;11.80;99.90;;;;;;5136976;27;20035;-79
2022/01/01 10:18:45;;;;;;;3.35;2.30;;;11.70;99.90;;;;;;5117612;27;20078;-82
2022/01/01 10:21:16;;;;;;;2.28;0.73;;;11.80;99.90;;;;;;5117840;27;20514;-79
2022/01/01 10:23:44;;;;;;;1.58;1.27;;;11.90;99.90;;;;;;5136401;27;20442;-82
2022/01/01 10:29:09;;;;;;;2.92;2.08;;;11.80;99.90;;;;;;5136393;27;20384;-85
2022/01/01 10:31:36;;;;;;;4.50;2.63;;;11.90;99.90;;;;;;5136136;27;20075;-83
2022/01/01 10:34:10;;;;;;;6.97;4.22;;;11.80;99.90;;;;;;5136162;27;20055;-84
2022/01/01 10:36:35;;;;;;;2.50;1.13;;;11.90;99.90;;;;;;5120626;27;20054;-79
2022/01/01 10:39:15;;;;;;;3.67;1.83;;;11.90;99.90;;;;;;5129585;27;20510;-78
2022/01/01 10:41:58;;;;;;;2.42;2.13;;;11.90;99.90;;;;;;5140955;27;20492;-82
2022/01/01 10:44:39;;;;;;;4.20;1.92;;;11.90;99.90;;;;;;5135645;27;20454;-82
2022/01/01 10:47:19;;;;;;;3.03;1.00;;;11.90;99.90;;;;;;5117486;27;20039;-79
2022/01/01 10:52:23;;;;;;;1.70;1.50;;;12.00;99.90;;;;;;5117340;27;20051;-82
2022/01/01 10:55:00;;;;;;;0.88;0.88;;;11.90;99.90;;;;;;5135908;27;20039;-79
2022/01/01 10:57:35;;;;;;;4.10;1.98;;;11.90;99.90;;;;;;5135695;27;20049;-83
2022/01/01 11:00:09;;;;;;;5.70;5.30;;;11.90;99.90;;;;;;5116678;27;20126;-83
2022/01/01 11:02:37;;;;;;;1.25;1.25;;;11.90;99.90;;;;;;5135251;27;20076;-82
2022/01/01 11:05:03;;;;;;;2.75;1.27;;;12.00;99.90;;;;;;5135094;27;20479;-79
2022/01/01 11:07:30;;;;;;;0.85;0.80;;;12.00;99.90;;;;;;5135574;27;20463;-79
2022/01/01 11:09:57;;;;;;;0.90;0.47;;;12.10;99.90;;;;;;5135360;27;20130;-83
2022/01/01 11:12:28;;;;;;;1.85;1.63;;;12.00;99.90;;;;;;5135336;27;20043;-80
2022/01/01 11:14:56;;;;;;;2.30;2.10;;;12.10;99.90;;;;;;5135016;27;20446;-84
2022/01/01 11:17:23;;;;;;;3.55;1.70;;;12.10;99.90;;;;;;5116856;27;20046;-83
2022/01/01 11:19:49;;;;;;;7.28;2.90;;;12.20;99.90;;;;;;5116733;27;20073;-79
2022/01/01 11:22:16;;;;;;;2.95;1.35;;;12.20;99.90;;;;;;5116457;27;20046;-80
2022/01/01 11:24:42;;;;;;;1.27;0.70;;;12.20;99.90;;;;;;5135031;27;20124;-81
2022/01/01 11:27:09;;;;;;;1.88;1.77;;;12.20;99.90;;;;;;5116677;27;20035;-79
2022/01/01 11:29:35;;;;;;;1.60;1.50;;;12.20;99.90;;;;;;5135245;27;20039;-83
2022/01/01 11:32:07;;;;;;;6.53;1.90;;;12.20;99.90;;;;;;5143328;27;20114;-79
2022/01/01 11:34:38;;;;;;;4.07;2.45;;;12.30;99.90;;;;;;5128048;27;20399;-77
2022/01/01 11:37:04;;;;;;;0.68;0.57;;;12.20;99.90;;;;;;5116764;27;20392;-83
2022/01/01 11:39:30;;;;;;;2.15;0.57;;;12.30;99.90;;;;;;5116363;27;20050;-81
2022/01/01 11:42:10;;;;;;;0.52;0.52;;;12.20;99.90;;;;;;5134781;27;20391;-79
2022/01/01 11:44:35;;;;;;;2.03;1.92;;;12.20;99.90;;;;;;5115951;27;20536;-81
2022/01/01 11:47:05;;;;;;;3.40;1.60;;;12.20;99.90;;;;;;5134812;27;20043;-85
2022/01/01 11:49:32;;;;;;;1.77;1.67;;;12.20;99.90;;;;;;5134711;27;20043;-79
2022/01/01 11:51:59;;;;;;;0.70;0.43;;;12.20;99.90;;;;;;5116155;27;20075;-79
2022/01/01 11:54:30;;;;;;;3.70;0.90;;;12.20;99.90;;;;;;5134365;27;20050;-79
2022/01/01 11:57:00;;;;;;;4.07;1.83;;;12.10;99.90;;;;;;5116296;27;20483;-82
2022/01/01 11:59:29;;;;;;;3.55;2.60;;;12.10;99.90;;;;;;5134243;27;20039;-83
2022/01/01 12:01:58;;;;;;;0.70;0.70;;;12.10;99.90;;;;;;5134506;27;20084;-83
2022/01/01 12:04:37;;;;;;;5.05;2.25;;;12.10;99.90;;;;;;5116217;27;20075;-83
2022/01/01 12:07:18;;;;;;;2.97;2.10;;;12.10;99.90;;;;;;5134478;27;20074;-83
2022/01/01 12:10:08;;;;;;;4.72;0.98;;;12.00;99.90;;;;;;5134757;27;20188;-82
2022/01/01 12:12:51;;;;;;;0.85;0.85;;;12.20;99.90;;;;;;5116361;27;20067;-82
2022/01/01 12:15:28;;;;;;;4.43;1.73;;;12.10;99.90;;;;;;5116161;27;20046;-83
2022/01/01 12:18:08;;;;;;;2.53;2.20;;;12.10;99.90;;;;;;5115752;27;20126;-83
2022/01/01 12:20:40;;;;;;;1.35;0.98;;;12.10;99.90;;;;;;5134043;27;20518;-83
2022/01/01 12:23:11;;;;;;;1.95;1.77;;;12.10;99.90;;;;;;5115612;27;20039;-84
2022/01/01 12:25:39;;;;;;;1.55;0.98;;;12.00;99.90;;;;;;5134968;27;20039;-84
2022/01/01 12:28:10;;;;;;;2.45;1.60;;;12.10;99.90;;;;;;5134517;27;20043;-84
2022/01/01 12:30:40;;;;;;;6.43;1.33;;;12.10;99.90;;;;;;5098669;27;20384;-83
2022/01/01 12:33:07;;;;;;;0.57;0.57;;;12.00;99.90;;;;;;5115230;28;20404;-82
2022/01/01 12:35:40;;;;;;;4.20;2.28;;;12.00;99.90;;;;;;5133577;27;20047;-83
2022/01/01 12:38:19;;;;;;;2.42;1.65;;;12.10;99.90;;;;;;5115314;28;20491;-83
2022/01/01 12:41:07;;;;;;;0.47;0.47;;;12.00;99.90;;;;;;5115526;28;20050;-83
2022/01/01 12:43:56;;;;;;;3.15;1.85;;;12.10;99.90;;;;;;5133632;28;20046;-83
2022/01/01 12:46:25;;;;;;;0.60;0.60;;;12.10;99.90;;;;;;5115228;28;20108;-82
2022/01/01 12:48:53;;;;;;;2.70;0.95;;;12.20;99.90;;;;;;5133519;28;20078;-82
2022/01/01 12:51:21;;;;;;;2.15;2.05;;;12.10;99.90;;;;;;5133652;28;20425;-82